Time;durP1;ratioP1;P1;durP2;ratioP2;P2;SDS_P1;SDS_P2;PMS_P1;PMS_P2;Temp;Humidity;BMP_temperature;BMP_pressure;BME280_temperature;BME280_humidity;BME280_pressure;Samples;Min_cycle;Max_cycle;Signal;HPM_P1;HPM_P2
2022/10/07 04:02:29;;;;;;;1.30;1.30;;;7.30;99.90;;;;;;6239788;22;20218;-69
2022/10/07 04:04:56;;;;;;;1.98;1.88;;;7.30;99.90;;;;;;6244064;23;20206;-68
2022/10/07 04:07:23;;;;;;;1.65;1.58;;;7.30;99.90;;;;;;6244468;23;20217;-68
2022/10/07 04:09:49;;;;;;;1.33;1.30;;;7.30;99.90;;;;;;6244498;23;20191;-70
2022/10/07 04:12:16;;;;;;;2.72;2.63;;;7.30;99.90;;;;;;6244238;22;20807;-68
2022/10/07 04:14:44;;;;;;;5.68;1.30;;;7.20;99.90;;;;;;6244266;23;20257;-68
2022/10/07 04:17:10;;;;;;;1.45;1.40;;;7.20;99.90;;;;;;6244206;23;20182;-70
2022/10/07 04:19:38;;;;;;;2.10;2.00;;;7.20;99.90;;;;;;6243487;23;20605;-69
2022/10/07 04:22:05;;;;;;;6.38;2.58;;;7.20;99.90;;;;;;6244012;22;20198;-70
2022/10/07 04:24:32;;;;;;;1.98;1.88;;;7.20;99.90;;;;;;6242782;23;20195;-69
2022/10/07 04:26:58;;;;;;;2.92;1.75;;;7.20;99.90;;;;;;6243747;23;20183;-70
2022/10/07 04:29:25;;;;;;;1.40;1.40;;;7.10;99.90;;;;;;6243957;23;20182;-70
2022/10/07 04:31:52;;;;;;;2.10;1.90;;;7.10;99.90;;;;;;6244301;22;20210;-69
2022/10/07 04:34:18;;;;;;;3.33;2.05;;;7.10;99.90;;;;;;6243227;23;20185;-70
2022/10/07 04:36:46;;;;;;;3.75;2.00;;;7.10;99.90;;;;;;6243371;23;20459;-70
2022/10/07 04:39:13;;;;;;;1.13;1.13;;;7.10;99.90;;;;;;6243484;23;20182;-70
2022/10/07 04:41:40;;;;;;;2.50;2.30;;;7.10;99.90;;;;;;6243598;22;20205;-71
2022/10/07 04:44:06;;;;;;;2.35;0.93;;;7.10;99.90;;;;;;6242636;23;20699;-70
2022/10/07 04:46:33;;;;;;;4.07;1.25;;;7.10;99.90;;;;;;6243834;23;20517;-70
2022/10/07 04:49:00;;;;;;;1.02;0.98;;;7.20;99.90;;;;;;6243151;23;20178;-71
2022/10/07 04:51:26;;;;;;;4.45;2.97;;;7.20;99.90;;;;;;6242825;22;20209;-69
2022/10/07 04:53:54;;;;;;;1.25;1.17;;;7.20;99.90;;;;;;6242833;23;20194;-70
2022/10/07 04:56:22;;;;;;;1.55;1.45;;;7.20;99.90;;;;;;6243779;23;20237;-71
2022/10/07 04:58:48;;;;;;;3.78;2.08;;;7.20;99.90;;;;;;6242561;23;20187;-69
2022/10/07 05:01:15;;;;;;;2.05;1.60;;;7.20;99.90;;;;;;6242074;22;20306;-70
2022/10/07 05:03:42;;;;;;;1.48;1.48;;;7.20;99.90;;;;;;6242580;23;20672;-71
2022/10/07 05:06:09;;;;;;;1.10;0.85;;;7.20;99.90;;;;;;6243270;23;20185;-70
2022/10/07 05:08:36;;;;;;;1.50;1.02;;;7.20;99.90;;;;;;6243437;23;20180;-70
2022/10/07 05:11:04;;;;;;;1.48;1.15;;;7.20;99.90;;;;;;6242984;22;20540;-69
2022/10/07 05:13:33;;;;;;;2.08;2.08;;;7.30;99.90;;;;;;6241384;23;20505;-69
2022/10/07 05:16:01;;;;;;;0.57;0.55;;;7.30;99.90;;;;;;6242386;23;20218;-71
2022/10/07 05:18:29;;;;;;;12.55;1.40;;;7.30;99.90;;;;;;6243314;23;20186;-69
2022/10/07 05:20:56;;;;;;;1.30;1.30;;;7.20;99.90;;;;;;6242932;22;20201;-70
2022/10/07 05:23:25;;;;;;;0.85;0.85;;;7.30;99.90;;;;;;6243198;23;20204;-69
2022/10/07 05:25:58;;;;;;;3.95;1.55;;;7.30;99.90;;;;;;6242350;23;20183;-71
2022/10/07 05:28:26;;;;;;;2.78;1.15;;;7.20;99.90;;;;;;6241986;23;20244;-69
2022/10/07 05:31:01;;;;;;;2.35;1.42;;;7.20;99.90;;;;;;6242638;22;20202;-69
2022/10/07 05:33:30;;;;;;;4.45;1.58;;;7.20;99.90;;;;;;6242647;23;20162;-69
2022/10/07 05:35:57;;;;;;;2.05;1.67;;;7.20;99.90;;;;;;6242470;23;20663;-69
2022/10/07 05:38:24;;;;;;;1.92;1.83;;;7.20;99.90;;;;;;6242895;23;20194;-69
2022/10/07 05:40:57;;;;;;;2.05;1.95;;;7.30;99.90;;;;;;6241559;22;20535;-70
2022/10/07 05:43:25;;;;;;;18.52;10.70;;;7.30;99.90;;;;;;6241042;23;20542;-69
2022/10/07 05:46:00;;;;;;;21.00;9.20;;;7.30;99.90;;;;;;6241598;23;20185;-69
2022/10/07 05:48:27;;;;;;;6.93;6.20;;;7.30;99.90;;;;;;6242923;23;20245;-68
2022/10/07 05:50:54;;;;;;;14.32;10.70;;;7.30;99.90;;;;;;6242498;22;20215;-70
2022/10/07 05:53:21;;;;;;;2.15;2.05;;;7.30;99.90;;;;;;6242656;23;20643;-70
2022/10/07 05:55:49;;;;;;;31.23;16.73;;;7.30;99.90;;;;;;6242099;23;20179;-69
2022/10/07 05:58:16;;;;;;;9.55;8.40;;;7.30;99.90;;;;;;6242950;23;20301;-69
2022/10/07 06:00:51;;;;;;;9.18;6.03;;;7.40;99.90;;;;;;6242061;22;20544;-70
2022/10/07 06:03:17;;;;;;;4.25;3.90;;;7.40;99.90;;;;;;6242992;23;20166;-71
2022/10/07 06:05:45;;;;;;;7.28;5.10;;;7.40;99.90;;;;;;6241951;23;20203;-68
2022/10/07 06:08:12;;;;;;;3.63;3.42;;;7.40;99.90;;;;;;6242581;23;20205;-70
2022/10/07 06:13:22;;;;;;;1.48;1.48;;;7.50;99.90;;;;;;6195987;23;20213;-69
2022/10/07 06:15:50;;;;;;;1.83;1.83;;;7.50;99.90;;;;;;6243146;23;20186;-70
2022/10/07 06:18:17;;;;;;;1.52;1.42;;;7.50;99.90;;;;;;6242343;23;20632;-70
2022/10/07 06:20:53;;;;;;;1.98;1.88;;;7.60;99.90;;;;;;6240537;22;20206;-69
2022/10/07 06:23:20;;;;;;;0.88;0.88;;;7.60;99.90;;;;;;6241655;23;20166;-70
2022/10/07 06:25:53;;;;;;;1.38;1.38;;;7.60;99.90;;;;;;6242301;23;20210;-70
2022/10/07 06:28:19;;;;;;;1.50;1.40;;;7.70;99.90;;;;;;6243268;23;20175;-71
2022/10/07 06:30:46;;;;;;;5.57;2.00;;;7.80;99.90;;;;;;6242671;22;20205;-70
2022/10/07 06:33:15;;;;;;;1.10;1.10;;;7.80;99.90;;;;;;6242399;23;20182;-70
2022/10/07 06:35:42;;;;;;;0.93;0.90;;;7.80;99.90;;;;;;6241625;23;20181;-71
2022/10/07 06:38:09;;;;;;;1.40;1.30;;;7.90;99.90;;;;;;6244226;23;20187;-70
2022/10/07 06:40:36;;;;;;;2.80;1.00;;;7.90;99.90;;;;;;6244836;22;20567;-71
2022/10/07 06:43:02;;;;;;;8.43;1.98;;;8.00;99.90;;;;;;6245956;23;20502;-71
2022/10/07 06:45:30;;;;;;;2.13;2.03;;;8.10;99.90;;;;;;6245554;23;20222;-69
2022/10/07 06:47:57;;;;;;;1.48;1.27;;;8.10;99.90;;;;;;6244120;23;20183;-70
2022/10/07 06:50:25;;;;;;;1.42;1.10;;;8.20;99.90;;;;;;6243632;22;20321;-70
2022/10/07 06:52:52;;;;;;;1.33;1.23;;;8.20;99.90;;;;;;6244086;23;20178;-70
2022/10/07 06:55:19;;;;;;;2.30;1.17;;;8.20;99.90;;;;;;6245007;23;20184;-71
2022/10/07 06:57:45;;;;;;;1.33;1.27;;;8.40;99.90;;;;;;6245178;23;20237;-69
2022/10/07 07:00:14;;;;;;;2.65;1.35;;;8.40;99.90;;;;;;6244319;23;20214;-71
2022/10/07 07:02:40;;;;;;;2.15;1.27;;;8.50;99.90;;;;;;6242200;23;20183;-69
2022/10/07 07:05:08;;;;;;;3.15;2.88;;;8.60;99.90;;;;;;6242315;23;20199;-70
2022/10/07 07:07:37;;;;;;;2.95;1.30;;;8.70;99.90;;;;;;6244579;23;20192;-70
2022/10/07 07:10:04;;;;;;;1.45;1.42;;;8.80;99.90;;;;;;6239871;23;20191;-70
2022/10/07 07:12:30;;;;;;;1.48;1.48;;;8.90;99.90;;;;;;6243443;22;20203;-68
2022/10/07 07:14:59;;;;;;;0.90;0.90;;;8.90;99.90;;;;;;6243040;23;20239;-68
2022/10/07 07:17:25;;;;;;;2.80;2.03;;;9.10;99.90;;;;;;6243942;23;20179;-68
2022/10/07 07:19:52;;;;;;;3.67;2.10;;;9.10;99.90;;;;;;6243660;23;20522;-68
2022/10/07 07:22:19;;;;;;;1.95;1.00;;;9.20;99.90;;;;;;6244606;22;20203;-69
2022/10/07 07:24:47;;;;;;;4.03;1.25;;;9.30;99.90;;;;;;6243306;23;20203;-68
2022/10/07 07:27:13;;;;;;;1.45;1.38;;;9.30;99.90;;;;;;6243833;23;20633;-69
2022/10/07 07:29:40;;;;;;;1.40;1.40;;;9.40;99.90;;;;;;6242412;23;20185;-67
2022/10/07 07:32:07;;;;;;;2.83;1.40;;;9.50;99.90;;;;;;6242922;22;20212;-69
2022/10/07 07:34:36;;;;;;;1.67;1.67;;;9.60;99.90;;;;;;6243505;23;20199;-69
2022/10/07 07:37:02;;;;;;;1.15;1.13;;;9.70;99.90;;;;;;6242911;23;20787;-68
2022/10/07 07:39:29;;;;;;;2.78;1.08;;;9.80;99.90;;;;;;6243714;23;20191;-69
2022/10/07 07:41:57;;;;;;;1.95;1.38;;;9.90;99.90;;;;;;6244458;22;20211;-70
2022/10/07 07:44:24;;;;;;;1.67;1.27;;;10.10;99.90;;;;;;6243061;23;20204;-71
2022/10/07 07:46:51;;;;;;;1.40;1.33;;;10.10;99.90;;;;;;6242363;23;20211;-69
2022/10/07 07:49:18;;;;;;;1.90;1.80;;;10.30;99.90;;;;;;6242765;23;20646;-70
2022/10/07 07:51:46;;;;;;;1.60;0.82;;;10.30;99.90;;;;;;6242565;22;20215;-70
2022/10/07 07:54:13;;;;;;;3.00;2.80;;;10.40;99.90;;;;;;6243639;23;20186;-70
2022/10/07 07:56:40;;;;;;;5.30;3.47;;;10.50;99.90;;;;;;6244083;23;20193;-70
2022/10/07 07:59:08;;;;;;;1.55;1.45;;;10.60;99.90;;;;;;6244462;23;20221;-70
2022/10/07 08:01:35;;;;;;;15.65;1.33;;;10.70;99.90;;;;;;6242382;22;20216;-68
2022/10/07 08:04:04;;;;;;;2.28;2.17;;;10.80;99.90;;;;;;6242959;23;20569;-69
2022/10/07 08:06:31;;;;;;;2.13;1.77;;;10.90;99.90;;;;;;6243076;23;20184;-69
2022/10/07 08:08:58;;;;;;;1.83;1.80;;;11.00;99.90;;;;;;6243989;23;20512;-69
2022/10/07 08:11:25;;;;;;;3.63;1.13;;;11.10;99.90;;;;;;6242894;22;20208;-69
2022/10/07 08:13:52;;;;;;;0.60;0.60;;;11.20;99.90;;;;;;6242323;23;20641;-69
2022/10/07 08:16:22;;;;;;;1.02;0.60;;;11.30;99.90;;;;;;6243732;23;20175;-68
2022/10/07 08:18:50;;;;;;;1.58;1.42;;;11.50;99.90;;;;;;6242049;23;20183;-68
2022/10/07 08:21:19;;;;;;;1.65;0.50;;;11.60;99.90;;;;;;6242823;22;20645;-69
2022/10/07 08:23:47;;;;;;;0.50;0.50;;;11.70;99.90;;;;;;6243278;23;20189;-68
2022/10/07 08:26:15;;;;;;;1.85;1.75;;;11.90;99.90;;;;;;6243564;23;20309;-68
2022/10/07 08:28:42;;;;;;;3.88;3.53;;;12.00;99.90;;;;;;6243529;23;20186;-70
2022/10/07 08:31:11;;;;;;;5.57;3.65;;;12.10;99.90;;;;;;6242774;22;20202;-70
2022/10/07 08:33:43;;;;;;;6.38;5.78;;;12.20;99.90;;;;;;6243201;23;20491;-69
2022/10/07 08:36:12;;;;;;;17.77;9.63;;;12.30;99.90;;;;;;6242332;23;20167;-69
2022/10/07 08:38:40;;;;;;;8.57;3.70;;;12.40;99.90;;;;;;6242534;23;20625;-69
2022/10/07 08:41:20;;;;;;;1.40;1.23;;;12.60;99.90;;;;;;6242159;22;20203;-69
2022/10/07 08:43:49;;;;;;;3.90;3.60;;;12.60;99.90;;;;;;6243645;23;20942;-69
2022/10/07 08:46:18;;;;;;;13.38;3.70;;;12.70;99.90;;;;;;6243224;23;20203;-69
2022/10/07 08:48:52;;;;;;;1.35;1.35;;;12.80;99.90;;;;;;6241306;23;20187;-70
2022/10/07 08:51:21;;;;;;;3.47;2.03;;;12.90;99.90;;;;;;6242916;22;20210;-68
2022/10/07 08:53:49;;;;;;;2.63;2.40;;;13.00;99.90;;;;;;6241666;23;20421;-68
2022/10/07 08:56:18;;;;;;;1.93;0.80;;;13.00;99.90;;;;;;6243093;23;20422;-69
2022/10/07 08:58:56;;;;;;;1.30;0.47;;;13.10;99.90;;;;;;6241873;23;20421;-68
2022/10/07 09:01:33;;;;;;;0.93;0.90;;;13.20;99.90;;;;;;6242575;22;20504;-69
2022/10/07 09:04:14;;;;;;;6.40;0.70;;;13.30;99.90;;;;;;6242858;23;20406;-69
2022/10/07 09:06:45;;;;;;;1.47;1.03;;;13.40;99.90;;;;;;6242600;23;20410;-69
2022/10/07 09:09:16;;;;;;;5.00;3.97;;;13.40;99.90;;;;;;6242629;23;20412;-70
2022/10/07 09:11:46;;;;;;;1.17;1.17;;;13.50;99.90;;;;;;6242885;22;20499;-69
2022/10/07 09:14:24;;;;;;;0.40;0.40;;;13.60;99.90;;;;;;6242865;23;20483;-67
2022/10/07 09:16:52;;;;;;;0.70;0.70;;;13.60;99.90;;;;;;6242655;23;20506;-69
2022/10/07 09:19:28;;;;;;;2.20;1.50;;;13.70;99.90;;;;;;6242777;23;20820;-69
2022/10/07 09:22:01;;;;;;;8.80;2.80;;;13.70;99.90;;;;;;6242090;22;20449;-68
2022/10/07 09:24:30;;;;;;;1.00;1.00;;;13.80;99.90;;;;;;6242650;23;20406;-68
2022/10/07 09:26:59;;;;;;;1.33;1.20;;;13.90;99.90;;;;;;6242889;23;20454;-69
2022/10/07 09:29:27;;;;;;;1.30;0.97;;;13.90;99.90;;;;;;6242740;23;20423;-69
2022/10/07 09:31:55;;;;;;;2.30;2.20;;;14.00;99.90;;;;;;6242227;22;20526;-70
2022/10/07 09:34:25;;;;;;;0.80;0.80;;;14.10;99.90;;;;;;6242113;23;20425;-69
2022/10/07 09:37:17;;;;;;;0.80;0.80;;;14.20;99.90;;;;;;6242788;23;20418;-69
2022/10/07 09:39:46;;;;;;;1.60;1.50;;;14.20;99.90;;;;;;6242942;23;20891;-69
2022/10/07 09:42:31;;;;;;;2.30;0.83;;;14.30;99.90;;;;;;6242904;22;20450;-68
2022/10/07 09:45:01;;;;;;;1.70;1.60;;;14.30;99.90;;;;;;6241067;23;20434;-69
2022/10/07 09:47:32;;;;;;;4.13;1.17;;;14.40;99.90;;;;;;6243120;23;20473;-69
2022/10/07 09:50:00;;;;;;;1.30;0.93;;;14.50;99.90;;;;;;6240896;23;20407;-69
2022/10/07 09:52:28;;;;;;;0.50;0.50;;;14.50;99.90;;;;;;6242702;22;20457;-69
2022/10/07 09:54:57;;;;;;;0.70;0.70;;;14.60;99.90;;;;;;6240428;23;20439;-69
2022/10/07 09:57:27;;;;;;;3.10;0.57;;;14.60;99.90;;;;;;6242986;23;20411;-70
2022/10/07 10:00:16;;;;;;;0.70;0.70;;;14.60;99.90;;;;;;6242690;23;20888;-70
2022/10/07 10:02:47;;;;;;;1.00;0.70;;;14.70;99.90;;;;;;6241711;23;20418;-69
2022/10/07 10:05:23;;;;;;;1.60;0.70;;;14.80;99.90;;;;;;6241830;23;20481;-70
2022/10/07 10:07:55;;;;;;;3.30;0.50;;;14.80;99.90;;;;;;6242321;23;20410;-68
2022/10/07 10:10:25;;;;;;;4.53;0.40;;;14.80;99.90;;;;;;6242895;22;20520;-69
2022/10/07 10:12:54;;;;;;;3.30;0.93;;;14.90;99.90;;;;;;6241104;23;20466;-68
2022/10/07 10:15:27;;;;;;;1.50;0.70;;;15.00;99.90;;;;;;6242665;23;20420;-70
2022/10/07 10:17:55;;;;;;;0.50;0.50;;;15.00;99.90;;;;;;6241774;23;20430;-70
2022/10/07 10:20:29;;;;;;;9.03;2.50;;;15.00;99.90;;;;;;6240656;22;21130;-70
2022/10/07 10:22:58;;;;;;;7.90;2.23;;;15.10;99.90;;;;;;6241750;23;20450;-69
2022/10/07 10:28:34;;;;;;;1.23;0.50;;;15.30;99.90;;;;;;6239222;23;20881;-69
2022/10/07 10:31:09;;;;;;;2.67;1.37;;;15.30;99.90;;;;;;6242206;22;20449;-69
2022/10/07 10:33:42;;;;;;;1.03;1.03;;;15.40;99.90;;;;;;6240955;23;20418;-70
2022/10/07 10:36:19;;;;;;;4.33;0.73;;;15.40;99.90;;;;;;6241587;23;20404;-70
2022/10/07 10:38:50;;;;;;;1.13;0.53;;;15.60;99.90;;;;;;6241404;23;20427;-68
2022/10/07 10:41:29;;;;;;;0.53;0.53;;;15.60;99.90;;;;;;6241494;22;20443;-67
2022/10/07 10:44:32;;;;;;;9.13;1.23;;;15.80;99.90;;;;;;6242112;23;20413;-68
2022/10/07 10:47:07;;;;;;;0.40;0.40;;;15.90;99.90;;;;;;6187573;23;20521;-67
2022/10/07 10:49:38;;;;;;;0.60;0.60;;;15.90;99.90;;;;;;6241210;23;20459;-67
2022/10/07 10:52:25;;;;;;;0.77;0.40;;;16.00;99.90;;;;;;6242147;22;20450;-68
2022/10/07 10:55:16;;;;;;;3.10;0.50;;;16.10;99.90;;;;;;6241424;23;20410;-69
2022/10/07 10:57:52;;;;;;;0.40;0.40;;;16.10;99.90;;;;;;6242802;23;20491;-69
2022/10/07 11:00:20;;;;;;;0.30;0.30;;;16.00;99.90;;;;;;6240724;22;20400;-68
2022/10/07 11:03:13;;;;;;;4.03;0.50;;;15.90;99.90;;;;;;6240506;22;20464;-70
2022/10/07 11:05:41;;;;;;;2.83;0.50;;;15.80;99.90;;;;;;6239707;23;20886;-69
2022/10/07 11:08:15;;;;;;;2.67;0.80;;;15.80;99.90;;;;;;6242096;23;20424;-69
2022/10/07 11:10:49;;;;;;;0.33;0.20;;;15.80;99.90;;;;;;6242263;23;20407;-69
2022/10/07 11:13:27;;;;;;;2.07;0.30;;;15.90;99.90;;;;;;6242455;22;20450;-69
2022/10/07 11:16:00;;;;;;;16.93;2.23;;;16.10;99.90;;;;;;6240670;23;20412;-69
2022/10/07 11:18:34;;;;;;;3.17;2.67;;;16.10;99.90;;;;;;6241613;23;20767;-68
2022/10/07 11:21:03;;;;;;;0.97;0.47;;;16.20;99.90;;;;;;6241913;23;20413;-69
2022/10/07 11:23:44;;;;;;;1.30;0.80;;;16.20;99.90;;;;;;6241482;22;20440;-68
2022/10/07 11:26:18;;;;;;;0.40;0.40;;;16.30;99.90;;;;;;6243883;23;20435;-69
2022/10/07 11:28:48;;;;;;;7.47;0.70;;;16.30;99.90;;;;;;6243865;23;20747;-68
2022/10/07 11:31:24;;;;;;;8.03;0.97;;;16.40;99.90;;;;;;6243542;23;20430;-69
2022/10/07 11:34:03;;;;;;;0.50;0.50;;;16.30;99.90;;;;;;6242351;22;20445;-69
2022/10/07 11:36:39;;;;;;;2.10;0.40;;;16.10;99.90;;;;;;6243370;23;20826;-70
2022/10/07 11:39:08;;;;;;;0.67;0.47;;;16.00;99.90;;;;;;6244238;23;20408;-69
2022/10/07 11:41:42;;;;;;;2.00;0.60;;;16.00;99.90;;;;;;6244039;23;20943;-69
2022/10/07 11:44:20;;;;;;;0.80;0.50;;;15.90;99.90;;;;;;6242671;22;20451;-69
2022/10/07 11:46:47;;;;;;;6.80;1.00;;;15.90;99.90;;;;;;6243100;23;20429;-68
2022/10/07 11:49:20;;;;;;;2.03;0.40;;;15.90;99.90;;;;;;6243855;23;20423;-69
2022/10/07 11:51:56;;;;;;;5.00;0.53;;;15.90;99.90;;;;;;6244418;23;20428;-70
2022/10/07 11:54:28;;;;;;;1.43;0.60;;;16.10;99.90;;;;;;6244803;22;20442;-69
2022/10/07 11:56:58;;;;;;;0.40;0.40;;;16.30;99.90;;;;;;6244531;23;20405;-69
2022/10/07 11:59:33;;;;;;;0.20;0.20;;;16.50;99.90;;;;;;6243775;23;20430;-69
2022/10/07 12:02:00;;;;;;;0.50;0.33;;;16.50;99.90;;;;;;6243789;23;20414;-68
2022/10/07 12:04:44;;;;;;;0.60;0.60;;;16.50;99.90;;;;;;6243336;22;20448;-69
2022/10/07 12:07:55;;;;;;;1.20;1.20;;;16.60;99.90;;;;;;6244696;23;20774;-69
2022/10/07 12:10:32;;;;;;;0.97;0.57;;;16.60;99.90;;;;;;6244268;23;20419;-68
2022/10/07 12:13:02;;;;;;;1.33;0.40;;;16.70;99.90;;;;;;6253612;22;20506;-69
2022/10/07 12:15:32;;;;;;;0.70;0.43;;;16.60;99.90;;;;;;6243674;23;20420;-69
2022/10/07 12:18:24;;;;;;;0.97;0.80;;;16.50;99.90;;;;;;6245098;23;20432;-71
2022/10/07 12:21:06;;;;;;;2.37;0.63;;;16.40;99.90;;;;;;6243166;23;20406;-69
2022/10/07 12:23:41;;;;;;;0.83;0.60;;;16.30;99.90;;;;;;6243475;22;20441;-69
2022/10/07 12:26:52;;;;;;;0.53;0.27;;;16.30;99.90;;;;;;6243368;23;20433;-67
2022/10/07 12:29:47;;;;;;;1.80;1.33;;;16.30;99.90;;;;;;6243263;23;20896;-69
2022/10/07 12:32:55;;;;;;;4.00;0.70;;;16.40;99.90;;;;;;6232017;22;20431;-69
2022/10/07 12:35:45;;;;;;;1.07;1.07;;;16.50;99.90;;;;;;6240189;23;20435;-68
2022/10/07 12:38:19;;;;;;;3.93;3.03;;;16.50;99.90;;;;;;6243420;23;20422;-69
2022/10/07 12:40:50;;;;;;;2.70;0.97;;;16.60;99.90;;;;;;6242794;23;20417;-69
2022/10/07 12:43:27;;;;;;;2.33;0.77;;;16.70;99.90;;;;;;6242030;22;20437;-69
2022/10/07 12:45:56;;;;;;;2.67;0.50;;;16.70;99.90;;;;;;6243654;23;20434;-69
2022/10/07 12:48:26;;;;;;;2.33;0.87;;;16.80;99.90;;;;;;6243713;23;20424;-69
2022/10/07 12:50:56;;;;;;;3.90;1.83;;;16.80;99.90;;;;;;6242608;23;20412;-69
2022/10/07 12:53:25;;;;;;;1.50;1.00;;;16.90;99.90;;;;;;6241535;22;20452;-69
2022/10/07 12:55:55;;;;;;;2.83;0.30;;;17.00;99.90;;;;;;6242738;23;20416;-69
2022/10/07 13:01:41;;;;;;;1.30;1.10;;;17.00;99.90;;;;;;6243444;23;20398;-68
2022/10/07 13:04:47;;;;;;;4.03;1.33;;;17.00;99.90;;;;;;6242309;22;20455;-69
2022/10/07 13:07:49;;;;;;;0.30;0.30;;;17.00;99.90;;;;;;6242637;23;20439;-69
2022/10/07 13:10:37;;;;;;;3.30;2.00;;;16.90;99.90;;;;;;6242030;23;20504;-69
2022/10/07 13:13:07;;;;;;;0.30;0.30;;;16.80;99.90;;;;;;6242918;22;20445;-69
2022/10/07 13:15:41;;;;;;;1.27;0.37;;;16.80;99.90;;;;;;6243443;23;21017;-69
2022/10/07 13:18:19;;;;;;;1.50;0.40;;;16.80;99.90;;;;;;6242901;23;20452;-69
2022/10/07 13:21:02;;;;;;;2.23;0.77;;;16.80;99.90;;;;;;6241713;23;20731;-69
2022/10/07 13:23:31;;;;;;;2.33;0.60;;;16.80;99.90;;;;;;6241622;22;20441;-70
2022/10/07 13:26:00;;;;;;;3.90;0.40;;;16.80;99.90;;;;;;6243546;23;20441;-70
2022/10/07 13:28:35;;;;;;;1.07;0.50;;;16.80;99.90;;;;;;6241819;23;20433;-70
2022/10/07 13:31:14;;;;;;;3.90;1.50;;;16.80;99.90;;;;;;6242255;23;20413;-69
2022/10/07 13:33:43;;;;;;;0.60;0.57;;;16.70;99.90;;;;;;6241581;22;20743;-70
2022/10/07 13:36:22;;;;;;;0.70;0.70;;;16.70;99.90;;;;;;6242245;23;20421;-70
2022/10/07 13:38:52;;;;;;;3.60;0.60;;;16.70;99.90;;;;;;6241352;23;20427;-70
2022/10/07 13:41:22;;;;;;;1.37;1.03;;;16.70;99.90;;;;;;6241929;23;20428;-70
2022/10/07 13:43:53;;;;;;;2.00;0.47;;;16.70;99.90;;;;;;6241757;22;20450;-69
2022/10/07 13:46:20;;;;;;;1.53;0.60;;;16.70;99.90;;;;;;6242064;23;20460;-70
2022/10/07 13:48:48;;;;;;;6.87;0.80;;;16.60;99.90;;;;;;6242819;23;20431;-70
2022/10/07 13:51:24;;;;;;;0.57;0.57;;;16.60;99.90;;;;;;6241405;23;20424;-70
2022/10/07 13:53:53;;;;;;;1.73;0.73;;;16.60;99.90;;;;;;6241416;22;20890;-70
2022/10/07 13:56:23;;;;;;;0.43;0.43;;;16.60;99.90;;;;;;6242357;23;20417;-70
2022/10/07 13:58:53;;;;;;;0.50;0.50;;;16.60;99.90;;;;;;6243177;23;20410;-70
2022/10/07 14:01:22;;;;;;;0.67;0.60;;;16.70;99.90;;;;;;6242697;23;20422;-69
2022/10/07 14:04:20;;;;;;;1.70;1.60;;;16.70;99.90;;;;;;6241143;22;20452;-70
2022/10/07 14:06:54;;;;;;;1.47;0.40;;;16.60;99.90;;;;;;6240897;23;20429;-67
2022/10/07 14:09:32;;;;;;;1.03;0.70;;;16.60;99.90;;;;;;6242965;23;20406;-70
2022/10/07 14:12:02;;;;;;;1.20;0.70;;;16.60;99.90;;;;;;6242726;23;20415;-70
2022/10/07 14:14:35;;;;;;;0.50;0.50;;;16.60;99.90;;;;;;6240316;22;20437;-69
2022/10/07 14:17:09;;;;;;;0.97;0.97;;;16.50;99.90;;;;;;6242482;23;20400;-70
2022/10/07 14:19:38;;;;;;;2.40;1.20;;;16.50;99.90;;;;;;6240912;23;20786;-70
2022/10/07 14:22:16;;;;;;;1.17;1.07;;;16.50;99.90;;;;;;6242608;23;20432;-69
2022/10/07 14:24:52;;;;;;;2.10;0.47;;;16.50;99.90;;;;;;6242404;23;20415;-69
2022/10/07 14:27:52;;;;;;;1.70;0.53;;;16.40;99.90;;;;;;6241882;23;20429;-68
2022/10/07 14:30:27;;;;;;;1.37;0.43;;;16.40;99.90;;;;;;6242274;23;21010;-70
2022/10/07 14:35:47;;;;;;;0.67;0.67;;;16.40;99.90;;;;;;6241461;23;20412;-69
2022/10/07 14:38:25;;;;;;;0.63;0.40;;;16.40;99.90;;;;;;6243864;23;20476;-69
2022/10/07 14:40:53;;;;;;;0.53;0.53;;;16.40;99.90;;;;;;6240356;23;20409;-69
2022/10/07 14:43:20;;;;;;;0.70;0.30;;;16.40;99.90;;;;;;6242416;22;20544;-69
2022/10/07 14:45:47;;;;;;;0.30;0.30;;;16.40;99.90;;;;;;6242609;23;20428;-69
2022/10/07 14:48:14;;;;;;;0.80;0.40;;;16.40;99.90;;;;;;6241849;23;20448;-69
2022/10/07 14:50:40;;;;;;;0.47;0.47;;;16.40;99.90;;;;;;6241378;23;20439;-69
2022/10/07 14:53:14;;;;;;;0.70;0.70;;;16.40;99.90;;;;;;6242357;22;20440;-68
2022/10/07 14:55:41;;;;;;;0.40;0.40;;;16.40;99.90;;;;;;6241332;23;20896;-69
2022/10/07 14:58:09;;;;;;;1.17;0.57;;;16.40;99.90;;;;;;6242608;23;20423;-68
2022/10/07 15:00:36;;;;;;;2.17;0.60;;;16.30;99.90;;;;;;6244260;23;20420;-70
2022/10/07 15:03:03;;;;;;;5.30;1.60;;;16.30;99.90;;;;;;6244177;22;20450;-70
2022/10/07 15:05:32;;;;;;;0.50;0.50;;;16.20;99.90;;;;;;6243259;23;20510;-70
2022/10/07 15:07:59;;;;;;;0.77;0.40;;;16.10;99.90;;;;;;6244074;23;20452;-71
2022/10/07 15:10:27;;;;;;;3.93;0.70;;;16.10;99.90;;;;;;6243327;23;20424;-70
2022/10/07 15:12:55;;;;;;;2.03;0.60;;;16.10;99.90;;;;;;6243814;22;21233;-70
2022/10/07 15:15:22;;;;;;;2.10;0.73;;;16.00;99.90;;;;;;6244060;23;20452;-69
2022/10/07 15:17:48;;;;;;;0.90;0.67;;;16.00;99.90;;;;;;6245010;23;20426;-70
2022/10/07 15:20:16;;;;;;;0.80;0.80;;;15.90;99.90;;;;;;6243169;23;20526;-70
2022/10/07 15:22:43;;;;;;;0.30;0.30;;;15.90;99.90;;;;;;6243686;22;20466;-69
2022/10/07 15:25:11;;;;;;;1.90;0.70;;;15.90;99.90;;;;;;6243297;23;20505;-70
2022/10/07 15:27:39;;;;;;;0.30;0.30;;;15.80;99.90;;;;;;6244121;23;20441;-71
2022/10/07 15:30:07;;;;;;;0.40;0.40;;;15.80;99.90;;;;;;6244211;23;20433;-70
2022/10/07 15:32:34;;;;;;;2.00;0.70;;;15.80;99.90;;;;;;6243545;22;20463;-69
2022/10/07 15:35:01;;;;;;;1.70;0.83;;;15.70;99.90;;;;;;6242774;23;20431;-70
2022/10/07 15:37:28;;;;;;;0.60;0.60;;;15.70;99.90;;;;;;6243572;23;20420;-71
2022/10/07 15:39:55;;;;;;;5.13;1.00;;;15.70;99.90;;;;;;6244156;23;20445;-71
2022/10/07 15:42:24;;;;;;;0.70;0.70;;;15.60;99.90;;;;;;6244410;22;20424;-71
2022/10/07 15:44:53;;;;;;;0.40;0.40;;;15.60;99.90;;;;;;6243461;23;20430;-71
2022/10/07 15:47:20;;;;;;;0.77;0.77;;;15.60;99.90;;;;;;6244327;23;20450;-70
2022/10/07 15:49:47;;;;;;;4.43;0.60;;;15.60;99.90;;;;;;6242041;23;20626;-68
2022/10/07 15:52:14;;;;;;;0.40;0.30;;;15.50;99.90;;;;;;6243322;22;20530;-70
2022/10/07 15:54:41;;;;;;;1.40;0.67;;;15.50;99.90;;;;;;6243254;23;20428;-70
2022/10/07 15:57:08;;;;;;;0.30;0.30;;;15.50;99.90;;;;;;6244328;23;20424;-70
2022/10/07 15:59:35;;;;;;;1.03;0.60;;;15.40;99.90;;;;;;6244053;23;20976;-70
2022/10/07 16:02:04;;;;;;;1.43;0.53;;;15.40;99.90;;;;;;6243859;23;20497;-71
2022/10/07 16:04:31;;;;;;;2.23;0.80;;;15.30;99.90;;;;;;6242826;22;20451;-70
2022/10/07 16:06:58;;;;;;;3.40;1.10;;;15.30;99.90;;;;;;6244423;23;20454;-70
2022/10/07 16:09:25;;;;;;;0.30;0.30;;;15.30;99.90;;;;;;6244233;23;20797;-71
2022/10/07 16:11:52;;;;;;;0.50;0.50;;;15.20;99.90;;;;;;6242568;23;20429;-70
2022/10/07 16:14:19;;;;;;;0.40;0.40;;;15.20;99.90;;;;;;6243363;22;20938;-71
2022/10/07 16:16:46;;;;;;;0.50;0.50;;;15.10;99.90;;;;;;6243985;23;20424;-70
2022/10/07 16:19:14;;;;;;;0.67;0.67;;;15.10;99.90;;;;;;6243208;23;20427;-71
2022/10/07 16:21:42;;;;;;;1.80;1.07;;;15.10;99.90;;;;;;6244138;23;20728;-70
2022/10/07 16:24:14;;;;;;;0.70;0.50;;;15.00;99.90;;;;;;6244525;22;20443;-71
2022/10/07 16:26:41;;;;;;;3.77;0.77;;;15.00;99.90;;;;;;6244163;23;20911;-70
2022/10/07 16:31:57;;;;;;;5.00;0.90;;;14.80;99.90;;;;;;6244098;23;20398;-71
2022/10/07 16:34:26;;;;;;;0.60;0.60;;;14.70;99.90;;;;;;6242778;22;20941;-70
2022/10/07 16:36:53;;;;;;;2.40;0.87;;;14.70;99.90;;;;;;6243902;23;20419;-70
2022/10/07 16:39:20;;;;;;;5.40;1.23;;;14.60;99.90;;;;;;6244485;23;20949;-71
2022/10/07 16:41:48;;;;;;;5.30;1.07;;;14.50;99.90;;;;;;6243222;23;20897;-70
2022/10/07 16:44:15;;;;;;;0.80;0.80;;;14.50;99.90;;;;;;6242134;22;20461;-70
2022/10/07 16:46:42;;;;;;;0.70;0.70;;;14.40;99.90;;;;;;6243281;23;20430;-70
2022/10/07 16:49:13;;;;;;;1.90;0.97;;;14.30;99.90;;;;;;6242606;23;20422;-70
2022/10/07 16:51:43;;;;;;;2.47;0.83;;;14.30;99.90;;;;;;6242506;23;20411;-71
2022/10/07 16:54:11;;;;;;;0.80;0.80;;;14.20;99.90;;;;;;6242977;22;20474;-70
2022/10/07 16:56:40;;;;;;;1.80;1.30;;;14.20;99.90;;;;;;6243026;23;20422;-70
2022/10/07 16:59:08;;;;;;;0.73;0.73;;;14.10;99.90;;;;;;6243609;23;20426;-71
2022/10/07 17:01:37;;;;;;;0.77;0.77;;;14.00;99.90;;;;;;6242298;23;20448;-70
2022/10/07 17:04:05;;;;;;;0.97;0.97;;;13.90;99.90;;;;;;6242469;22;20458;-70
2022/10/07 17:06:33;;;;;;;0.97;0.97;;;13.80;99.90;;;;;;6243341;23;20430;-71
2022/10/07 17:09:03;;;;;;;1.10;1.10;;;13.70;99.90;;;;;;6242454;23;20441;-70
2022/10/07 17:11:32;;;;;;;1.50;1.50;;;13.60;99.90;;;;;;6241290;23;20430;-70
2022/10/07 17:14:01;;;;;;;2.30;1.60;;;13.50;99.90;;;;;;6241545;22;20452;-70
2022/10/07 17:16:31;;;;;;;1.20;1.10;;;13.50;99.90;;;;;;6242783;23;20425;-69
2022/10/07 17:18:58;;;;;;;1.60;1.33;;;13.40;99.90;;;;;;6241739;23;20920;-68
2022/10/07 17:21:25;;;;;;;1.73;1.63;;;13.30;99.90;;;;;;6242014;23;20422;-67
2022/10/07 17:23:57;;;;;;;3.80;2.60;;;13.20;99.90;;;;;;6241581;22;20900;-68
2022/10/07 17:26:25;;;;;;;1.60;1.50;;;13.20;99.90;;;;;;6243049;23;20463;-68